sensor_id;sensor_type;location;lat;lon;timestamp;P1;durP1;ratioP1;P2;durP2;ratioP2
15913;SDS011;8055;51.930;8.840;2022-12-10T00:01:37;58.55;;;29.13;;
15913;SDS011;8055;51.930;8.840;2022-12-10T00:04:03;47.83;;;24.30;;
15913;SDS011;8055;51.930;8.840;2022-12-10T00:06:30;44.67;;;23.95;;
15913;SDS011;8055;51.930;8.840;2022-12-10T00:08:59;55.35;;;28.55;;
15913;SDS011;8055;51.930;8.840;2022-12-10T00:11:25;52.75;;;27.50;;
15913;SDS011;8055;51.930;8.840;2022-12-10T00:13:51;47.45;;;26.23;;
15913;SDS011;8055;51.930;8.840;2022-12-10T00:16:18;62.13;;;29.63;;
15913;SDS011;8055;51.930;8.840;2022-12-10T00:18:45;54.65;;;28.70;;
15913;SDS011;8055;51.930;8.840;2022-12-10T00:21:12;53.05;;;27.42;;
15913;SDS011;8055;51.930;8.840;2022-12-10T00:23:40;49.53;;;27.05;;
15913;SDS011;8055;51.930;8.840;2022-12-10T00:26:06;54.60;;;28.35;;
15913;SDS011;8055;51.930;8.840;2022-12-10T00:28:40;54.45;;;29.35;;
15913;SDS011;8055;51.930;8.840;2022-12-10T00:31:06;54.88;;;29.33;;
15913;SDS011;8055;51.930;8.840;2022-12-10T00:33:34;52.90;;;27.92;;
15913;SDS011;8055;51.930;8.840;2022-12-10T00:36:19;50.08;;;26.50;;
15913;SDS011;8055;51.930;8.840;2022-12-10T00:38:47;53.85;;;29.48;;
15913;SDS011;8055;51.930;8.840;2022-12-10T00:41:13;53.17;;;27.52;;
15913;SDS011;8055;51.930;8.840;2022-12-10T00:43:39;54.20;;;28.30;;
15913;SDS011;8055;51.930;8.840;2022-12-10T00:46:05;54.65;;;28.95;;
15913;SDS011;8055;51.930;8.840;2022-12-10T00:48:31;56.60;;;29.08;;
15913;SDS011;8055;51.930;8.840;2022-12-10T00:51:01;57.92;;;30.50;;
15913;SDS011;8055;51.930;8.840;2022-12-10T00:53:27;58.45;;;29.05;;
15913;SDS011;8055;51.930;8.840;2022-12-10T00:55:54;56.33;;;30.15;;
15913;SDS011;8055;51.930;8.840;2022-12-10T00:58:20;57.63;;;29.92;;
15913;SDS011;8055;51.930;8.840;2022-12-10T01:00:46;57.60;;;30.27;;
15913;SDS011;8055;51.930;8.840;2022-12-10T01:03:12;61.67;;;31.70;;
15913;SDS011;8055;51.930;8.840;2022-12-10T01:05:38;54.95;;;30.83;;
15913;SDS011;8055;51.930;8.840;2022-12-10T01:08:03;61.42;;;32.42;;
15913;SDS011;8055;51.930;8.840;2022-12-10T01:10:29;62.72;;;32.72;;
15913;SDS011;8055;51.930;8.840;2022-12-10T01:12:54;62.15;;;31.10;;
15913;SDS011;8055;51.930;8.840;2022-12-10T01:15:20;54.83;;;29.63;;
15913;SDS011;8055;51.930;8.840;2022-12-10T01:17:45;61.60;;;30.92;;
15913;SDS011;8055;51.930;8.840;2022-12-10T01:20:10;56.83;;;30.92;;
15913;SDS011;8055;51.930;8.840;2022-12-10T01:22:37;60.05;;;31.05;;
15913;SDS011;8055;51.930;8.840;2022-12-10T01:25:03;57.92;;;31.08;;
15913;SDS011;8055;51.930;8.840;2022-12-10T01:27:29;60.65;;;31.50;;
15913;SDS011;8055;51.930;8.840;2022-12-10T01:29:54;56.30;;;29.65;;
15913;SDS011;8055;51.930;8.840;2022-12-10T01:32:19;60.10;;;30.50;;
15913;SDS011;8055;51.930;8.840;2022-12-10T01:34:45;60.70;;;30.85;;
15913;SDS011;8055;51.930;8.840;2022-12-10T01:37:10;68.60;;;34.13;;
15913;SDS011;8055;51.930;8.840;2022-12-10T01:39:36;61.15;;;31.15;;
15913;SDS011;8055;51.930;8.840;2022-12-10T01:42:01;60.40;;;30.88;;
15913;SDS011;8055;51.930;8.840;2022-12-10T01:46:53;56.03;;;29.48;;
15913;SDS011;8055;51.930;8.840;2022-12-10T01:51:51;64.07;;;30.50;;
15913;SDS011;8055;51.930;8.840;2022-12-10T01:54:29;60.22;;;29.70;;
15913;SDS011;8055;51.930;8.840;2022-12-10T01:57:00;74.72;;;33.30;;
15913;SDS011;8055;51.930;8.840;2022-12-10T01:59:28;59.88;;;30.08;;
15913;SDS011;8055;51.930;8.840;2022-12-10T02:07:45;65.28;;;31.80;;
15913;SDS011;8055;51.930;8.840;2022-12-10T02:12:58;69.88;;;31.88;;
15913;SDS011;8055;51.930;8.840;2022-12-10T02:15:32;65.00;;;31.48;;
15913;SDS011;8055;51.930;8.840;2022-12-10T02:18:07;59.40;;;29.65;;
15913;SDS011;8055;51.930;8.840;2022-12-10T02:20:38;60.30;;;29.95;;
15913;SDS011;8055;51.930;8.840;2022-12-10T02:23:11;63.80;;;30.48;;
15913;SDS011;8055;51.930;8.840;2022-12-10T02:25:46;65.55;;;32.83;;
15913;SDS011;8055;51.930;8.840;2022-12-10T02:28:19;72.75;;;32.78;;
15913;SDS011;8055;51.930;8.840;2022-12-10T02:30:50;68.82;;;32.03;;
15913;SDS011;8055;51.930;8.840;2022-12-10T02:33:17;64.63;;;30.35;;
15913;SDS011;8055;51.930;8.840;2022-12-10T02:35:45;66.18;;;31.42;;
15913;SDS011;8055;51.930;8.840;2022-12-10T02:38:16;73.10;;;34.08;;
15913;SDS011;8055;51.930;8.840;2022-12-10T02:40:48;72.22;;;33.80;;
15913;SDS011;8055;51.930;8.840;2022-12-10T02:43:17;66.60;;;32.08;;
15913;SDS011;8055;51.930;8.840;2022-12-10T02:45:42;68.40;;;32.85;;
15913;SDS011;8055;51.930;8.840;2022-12-10T02:48:09;68.25;;;32.78;;
15913;SDS011;8055;51.930;8.840;2022-12-10T02:50:36;71.30;;;33.95;;
15913;SDS011;8055;51.930;8.840;2022-12-10T02:53:01;64.95;;;31.85;;
15913;SDS011;8055;51.930;8.840;2022-12-10T02:55:28;71.32;;;32.70;;
15913;SDS011;8055;51.930;8.840;2022-12-10T03:00:35;68.95;;;33.72;;
15913;SDS011;8055;51.930;8.840;2022-12-10T03:03:27;71.93;;;34.15;;
15913;SDS011;8055;51.930;8.840;2022-12-10T03:06:09;64.15;;;30.65;;
15913;SDS011;8055;51.930;8.840;2022-12-10T03:11:32;63.22;;;30.52;;
15913;SDS011;8055;51.930;8.840;2022-12-10T03:16:35;66.18;;;31.63;;
15913;SDS011;8055;51.930;8.840;2022-12-10T03:19:05;71.55;;;32.75;;
15913;SDS011;8055;51.930;8.840;2022-12-10T03:21:35;76.90;;;35.22;;
15913;SDS011;8055;51.930;8.840;2022-12-10T03:24:03;76.38;;;35.05;;
15913;SDS011;8055;51.930;8.840;2022-12-10T03:26:29;75.45;;;34.83;;
15913;SDS011;8055;51.930;8.840;2022-12-10T03:28:56;78.60;;;37.20;;
15913;SDS011;8055;51.930;8.840;2022-12-10T03:31:28;72.07;;;34.75;;
15913;SDS011;8055;51.930;8.840;2022-12-10T03:33:56;82.93;;;36.95;;
15913;SDS011;8055;51.930;8.840;2022-12-10T03:36:21;80.28;;;37.75;;
15913;SDS011;8055;51.930;8.840;2022-12-10T03:38:48;74.57;;;34.17;;
15913;SDS011;8055;51.930;8.840;2022-12-10T03:41:15;73.47;;;34.35;;
15913;SDS011;8055;51.930;8.840;2022-12-10T03:43:50;76.57;;;34.83;;
15913;SDS011;8055;51.930;8.840;2022-12-10T03:46:17;62.17;;;29.95;;
15913;SDS011;8055;51.930;8.840;2022-12-10T03:48:43;68.07;;;31.95;;
15913;SDS011;8055;51.930;8.840;2022-12-10T03:51:08;75.68;;;34.03;;
15913;SDS011;8055;51.930;8.840;2022-12-10T03:53:33;76.13;;;34.63;;
15913;SDS011;8055;51.930;8.840;2022-12-10T03:55:59;67.40;;;32.67;;
15913;SDS011;8055;51.930;8.840;2022-12-10T03:58:24;79.93;;;37.70;;
15913;SDS011;8055;51.930;8.840;2022-12-10T04:00:50;71.60;;;35.25;;
15913;SDS011;8055;51.930;8.840;2022-12-10T04:03:15;71.57;;;34.05;;
15913;SDS011;8055;51.930;8.840;2022-12-10T04:05:40;73.50;;;33.08;;
15913;SDS011;8055;51.930;8.840;2022-12-10T04:08:06;67.68;;;30.92;;
15913;SDS011;8055;51.930;8.840;2022-12-10T04:10:34;63.90;;;30.75;;
15913;SDS011;8055;51.930;8.840;2022-12-10T04:13:01;67.97;;;32.65;;
15913;SDS011;8055;51.930;8.840;2022-12-10T04:15:44;63.20;;;29.90;;
15913;SDS011;8055;51.930;8.840;2022-12-10T04:18:28;69.10;;;31.45;;
15913;SDS011;8055;51.930;8.840;2022-12-10T04:20:53;61.28;;;30.20;;
15913;SDS011;8055;51.930;8.840;2022-12-10T04:23:37;63.35;;;31.48;;
15913;SDS011;8055;51.930;8.840;2022-12-10T04:26:21;59.47;;;28.17;;
15913;SDS011;8055;51.930;8.840;2022-12-10T04:29:05;66.10;;;32.47;;
15913;SDS011;8055;51.930;8.840;2022-12-10T04:31:31;72.07;;;31.92;;
15913;SDS011;8055;51.930;8.840;2022-12-10T04:33:57;63.03;;;31.38;;
15913;SDS011;8055;51.930;8.840;2022-12-10T04:36:22;59.03;;;29.58;;
15913;SDS011;8055;51.930;8.840;2022-12-10T04:38:47;60.03;;;30.58;;
15913;SDS011;8055;51.930;8.840;2022-12-10T04:41:13;69.90;;;33.80;;
15913;SDS011;8055;51.930;8.840;2022-12-10T04:43:40;60.08;;;29.88;;
15913;SDS011;8055;51.930;8.840;2022-12-10T04:46:09;60.40;;;29.77;;
15913;SDS011;8055;51.930;8.840;2022-12-10T04:48:35;66.70;;;32.92;;
15913;SDS011;8055;51.930;8.840;2022-12-10T04:51:01;63.88;;;33.40;;
15913;SDS011;8055;51.930;8.840;2022-12-10T04:53:26;67.93;;;32.20;;
15913;SDS011;8055;51.930;8.840;2022-12-10T04:55:52;61.47;;;31.17;;
15913;SDS011;8055;51.930;8.840;2022-12-10T04:58:17;64.32;;;32.60;;
15913;SDS011;8055;51.930;8.840;2022-12-10T05:00:42;65.85;;;33.63;;
15913;SDS011;8055;51.930;8.840;2022-12-10T05:03:08;65.75;;;32.78;;
15913;SDS011;8055;51.930;8.840;2022-12-10T05:05:34;64.00;;;32.63;;
15913;SDS011;8055;51.930;8.840;2022-12-10T05:07:59;74.00;;;35.30;;
15913;SDS011;8055;51.930;8.840;2022-12-10T05:10:25;71.10;;;34.95;;
15913;SDS011;8055;51.930;8.840;2022-12-10T05:12:50;68.22;;;33.70;;
15913;SDS011;8055;51.930;8.840;2022-12-10T05:15:16;67.63;;;33.30;;
15913;SDS011;8055;51.930;8.840;2022-12-10T05:17:41;65.75;;;31.35;;
15913;SDS011;8055;51.930;8.840;2022-12-10T05:20:07;71.95;;;34.97;;
15913;SDS011;8055;51.930;8.840;2022-12-10T05:22:32;63.30;;;33.05;;
15913;SDS011;8055;51.930;8.840;2022-12-10T05:25:16;67.07;;;32.85;;
15913;SDS011;8055;51.930;8.840;2022-12-10T05:27:42;69.93;;;35.63;;
15913;SDS011;8055;51.930;8.840;2022-12-10T05:30:07;67.55;;;33.30;;
15913;SDS011;8055;51.930;8.840;2022-12-10T05:32:34;68.22;;;34.78;;
15913;SDS011;8055;51.930;8.840;2022-12-10T05:35:00;67.32;;;34.05;;
15913;SDS011;8055;51.930;8.840;2022-12-10T05:37:25;60.80;;;31.10;;
15913;SDS011;8055;51.930;8.840;2022-12-10T05:39:50;62.08;;;31.27;;
15913;SDS011;8055;51.930;8.840;2022-12-10T05:42:16;66.25;;;31.30;;
15913;SDS011;8055;51.930;8.840;2022-12-10T05:44:41;63.50;;;32.03;;
15913;SDS011;8055;51.930;8.840;2022-12-10T05:47:06;67.45;;;35.15;;
15913;SDS011;8055;51.930;8.840;2022-12-10T05:49:31;63.53;;;32.50;;
15913;SDS011;8055;51.930;8.840;2022-12-10T05:51:57;60.72;;;31.13;;
15913;SDS011;8055;51.930;8.840;2022-12-10T05:54:22;63.35;;;32.55;;
15913;SDS011;8055;51.930;8.840;2022-12-10T05:56:48;51.80;;;27.23;;
15913;SDS011;8055;51.930;8.840;2022-12-10T05:59:13;53.35;;;27.27;;
15913;SDS011;8055;51.930;8.840;2022-12-10T06:01:38;55.35;;;29.55;;
15913;SDS011;8055;51.930;8.840;2022-12-10T06:04:04;58.35;;;29.80;;
15913;SDS011;8055;51.930;8.840;2022-12-10T06:06:31;59.83;;;31.33;;
15913;SDS011;8055;51.930;8.840;2022-12-10T06:08:59;66.28;;;33.63;;
15913;SDS011;8055;51.930;8.840;2022-12-10T06:11:25;60.40;;;32.20;;
15913;SDS011;8055;51.930;8.840;2022-12-10T06:13:52;61.83;;;32.00;;
15913;SDS011;8055;51.930;8.840;2022-12-10T06:16:17;65.32;;;32.67;;
15913;SDS011;8055;51.930;8.840;2022-12-10T06:18:43;61.80;;;33.53;;
15913;SDS011;8055;51.930;8.840;2022-12-10T06:21:12;60.95;;;30.13;;
15913;SDS011;8055;51.930;8.840;2022-12-10T06:23:40;59.42;;;31.13;;
15913;SDS011;8055;51.930;8.840;2022-12-10T06:26:16;53.05;;;29.80;;
15913;SDS011;8055;51.930;8.840;2022-12-10T06:28:44;56.72;;;29.75;;
15913;SDS011;8055;51.930;8.840;2022-12-10T06:31:11;55.00;;;29.13;;
15913;SDS011;8055;51.930;8.840;2022-12-10T06:33:36;56.95;;;29.30;;
15913;SDS011;8055;51.930;8.840;2022-12-10T06:36:03;58.17;;;29.92;;
15913;SDS011;8055;51.930;8.840;2022-12-10T06:38:33;60.35;;;29.75;;
15913;SDS011;8055;51.930;8.840;2022-12-10T06:40:59;57.03;;;30.67;;
15913;SDS011;8055;51.930;8.840;2022-12-10T06:43:27;58.17;;;30.10;;
15913;SDS011;8055;51.930;8.840;2022-12-10T06:45:53;54.63;;;29.90;;
15913;SDS011;8055;51.930;8.840;2022-12-10T06:48:19;60.83;;;30.75;;
15913;SDS011;8055;51.930;8.840;2022-12-10T06:50:44;60.20;;;30.60;;
15913;SDS011;8055;51.930;8.840;2022-12-10T06:53:09;60.30;;;30.50;;
15913;SDS011;8055;51.930;8.840;2022-12-10T06:55:36;63.67;;;32.25;;
15913;SDS011;8055;51.930;8.840;2022-12-10T06:58:02;59.38;;;31.17;;
15913;SDS011;8055;51.930;8.840;2022-12-10T07:00:28;59.33;;;31.00;;
15913;SDS011;8055;51.930;8.840;2022-12-10T07:02:53;59.92;;;29.67;;
15913;SDS011;8055;51.930;8.840;2022-12-10T07:05:18;55.63;;;29.98;;
15913;SDS011;8055;51.930;8.840;2022-12-10T07:07:44;55.67;;;29.58;;
15913;SDS011;8055;51.930;8.840;2022-12-10T07:10:09;61.80;;;32.53;;
15913;SDS011;8055;51.930;8.840;2022-12-10T07:12:35;63.83;;;32.22;;
15913;SDS011;8055;51.930;8.840;2022-12-10T07:15:00;60.05;;;32.00;;
15913;SDS011;8055;51.930;8.840;2022-12-10T07:17:26;63.78;;;33.15;;
15913;SDS011;8055;51.930;8.840;2022-12-10T07:19:51;61.40;;;31.75;;
15913;SDS011;8055;51.930;8.840;2022-12-10T07:22:17;62.10;;;31.77;;
15913;SDS011;8055;51.930;8.840;2022-12-10T07:24:42;63.72;;;32.35;;
15913;SDS011;8055;51.930;8.840;2022-12-10T07:27:08;62.55;;;31.60;;
15913;SDS011;8055;51.930;8.840;2022-12-10T07:29:33;62.53;;;32.05;;
15913;SDS011;8055;51.930;8.840;2022-12-10T07:31:59;64.30;;;32.53;;
15913;SDS011;8055;51.930;8.840;2022-12-10T07:34:24;61.55;;;32.42;;
15913;SDS011;8055;51.930;8.840;2022-12-10T07:36:50;63.25;;;32.25;;
15913;SDS011;8055;51.930;8.840;2022-12-10T07:39:15;62.35;;;31.23;;
15913;SDS011;8055;51.930;8.840;2022-12-10T07:41:48;61.60;;;30.98;;
15913;SDS011;8055;51.930;8.840;2022-12-10T07:44:18;63.95;;;31.73;;
15913;SDS011;8055;51.930;8.840;2022-12-10T07:46:46;66.05;;;32.28;;
15913;SDS011;8055;51.930;8.840;2022-12-10T07:49:12;64.28;;;33.13;;
15913;SDS011;8055;51.930;8.840;2022-12-10T07:51:38;69.15;;;34.58;;
15913;SDS011;8055;51.930;8.840;2022-12-10T07:54:03;68.63;;;34.20;;
15913;SDS011;8055;51.930;8.840;2022-12-10T07:56:29;68.15;;;32.85;;
15913;SDS011;8055;51.930;8.840;2022-12-10T07:58:54;68.25;;;33.42;;
15913;SDS011;8055;51.930;8.840;2022-12-10T08:01:21;65.38;;;33.38;;
15913;SDS011;8055;51.930;8.840;2022-12-10T08:03:48;64.32;;;31.85;;
15913;SDS011;8055;51.930;8.840;2022-12-10T08:06:15;68.07;;;33.15;;
15913;SDS011;8055;51.930;8.840;2022-12-10T08:08:42;69.38;;;34.92;;
15913;SDS011;8055;51.930;8.840;2022-12-10T08:11:09;67.78;;;33.72;;
15913;SDS011;8055;51.930;8.840;2022-12-10T08:13:35;67.70;;;33.40;;
15913;SDS011;8055;51.930;8.840;2022-12-10T08:16:05;60.75;;;30.63;;
15913;SDS011;8055;51.930;8.840;2022-12-10T08:18:33;67.95;;;32.53;;
15913;SDS011;8055;51.930;8.840;2022-12-10T08:21:04;67.35;;;32.20;;
15913;SDS011;8055;51.930;8.840;2022-12-10T08:23:30;62.08;;;32.15;;
15913;SDS011;8055;51.930;8.840;2022-12-10T08:25:55;63.13;;;32.85;;
15913;SDS011;8055;51.930;8.840;2022-12-10T08:28:21;60.65;;;32.03;;
15913;SDS011;8055;51.930;8.840;2022-12-10T08:30:47;65.78;;;33.85;;
15913;SDS011;8055;51.930;8.840;2022-12-10T08:33:13;65.60;;;33.35;;
15913;SDS011;8055;51.930;8.840;2022-12-10T08:35:39;69.38;;;34.17;;
15913;SDS011;8055;51.930;8.840;2022-12-10T08:38:04;61.65;;;31.65;;
15913;SDS011;8055;51.930;8.840;2022-12-10T08:40:30;61.88;;;31.48;;
15913;SDS011;8055;51.930;8.840;2022-12-10T08:42:55;59.13;;;31.98;;
15913;SDS011;8055;51.930;8.840;2022-12-10T08:45:20;59.80;;;30.88;;
15913;SDS011;8055;51.930;8.840;2022-12-10T08:47:46;63.72;;;31.90;;
15913;SDS011;8055;51.930;8.840;2022-12-10T08:50:11;62.45;;;31.10;;
15913;SDS011;8055;51.930;8.840;2022-12-10T08:52:36;65.28;;;32.88;;
15913;SDS011;8055;51.930;8.840;2022-12-10T08:55:02;59.72;;;30.98;;
15913;SDS011;8055;51.930;8.840;2022-12-10T08:57:28;67.72;;;33.47;;
15913;SDS011;8055;51.930;8.840;2022-12-10T08:59:53;66.70;;;32.58;;
15913;SDS011;8055;51.930;8.840;2022-12-10T09:02:18;58.90;;;31.23;;
15913;SDS011;8055;51.930;8.840;2022-12-10T09:04:44;61.90;;;31.77;;
15913;SDS011;8055;51.930;8.840;2022-12-10T09:07:11;62.20;;;33.05;;
15913;SDS011;8055;51.930;8.840;2022-12-10T09:09:37;62.45;;;32.50;;
15913;SDS011;8055;51.930;8.840;2022-12-10T09:12:02;63.33;;;32.53;;
15913;SDS011;8055;51.930;8.840;2022-12-10T09:14:28;62.30;;;32.28;;
15913;SDS011;8055;51.930;8.840;2022-12-10T09:16:53;63.70;;;33.05;;
15913;SDS011;8055;51.930;8.840;2022-12-10T09:19:19;58.67;;;30.65;;
15913;SDS011;8055;51.930;8.840;2022-12-10T09:21:44;58.50;;;31.63;;
15913;SDS011;8055;51.930;8.840;2022-12-10T09:24:10;59.92;;;31.90;;
15913;SDS011;8055;51.930;8.840;2022-12-10T09:26:35;61.60;;;30.98;;
15913;SDS011;8055;51.930;8.840;2022-12-10T09:29:00;47.53;;;27.27;;
15913;SDS011;8055;51.930;8.840;2022-12-10T09:31:26;45.50;;;24.65;;
15913;SDS011;8055;51.930;8.840;2022-12-10T09:33:52;43.13;;;21.88;;
15913;SDS011;8055;51.930;8.840;2022-12-10T09:36:18;18.42;;;11.13;;
15913;SDS011;8055;51.930;8.840;2022-12-10T09:38:45;17.70;;;11.20;;
15913;SDS011;8055;51.930;8.840;2022-12-10T09:46:51;22.55;;;13.20;;
15913;SDS011;8055;51.930;8.840;2022-12-10T09:52:17;23.45;;;13.30;;
15913;SDS011;8055;51.930;8.840;2022-12-10T09:54:48;26.38;;;14.63;;
15913;SDS011;8055;51.930;8.840;2022-12-10T09:57:51;21.50;;;12.70;;
15913;SDS011;8055;51.930;8.840;2022-12-10T10:03:09;23.55;;;13.77;;
15913;SDS011;8055;51.930;8.840;2022-12-10T10:05:41;23.77;;;13.55;;
15913;SDS011;8055;51.930;8.840;2022-12-10T10:13:21;29.80;;;16.30;;
15913;SDS011;8055;51.930;8.840;2022-12-10T10:16:13;30.50;;;17.83;;
15913;SDS011;8055;51.930;8.840;2022-12-10T10:18:41;28.55;;;16.55;;
15913;SDS011;8055;51.930;8.840;2022-12-10T10:21:16;28.48;;;16.05;;
15913;SDS011;8055;51.930;8.840;2022-12-10T10:23:47;29.95;;;16.13;;
15913;SDS011;8055;51.930;8.840;2022-12-10T10:26:13;29.05;;;16.83;;
15913;SDS011;8055;51.930;8.840;2022-12-10T10:28:38;29.83;;;17.67;;
15913;SDS011;8055;51.930;8.840;2022-12-10T10:31:12;29.60;;;17.70;;
15913;SDS011;8055;51.930;8.840;2022-12-10T10:33:54;34.95;;;19.27;;
15913;SDS011;8055;51.930;8.840;2022-12-10T10:36:22;37.03;;;21.75;;
15913;SDS011;8055;51.930;8.840;2022-12-10T10:38:49;36.55;;;23.00;;
15913;SDS011;8055;51.930;8.840;2022-12-10T10:41:15;36.53;;;22.05;;
15913;SDS011;8055;51.930;8.840;2022-12-10T10:43:41;36.13;;;21.50;;
15913;SDS011;8055;51.930;8.840;2022-12-10T10:48:40;33.63;;;19.65;;
15913;SDS011;8055;51.930;8.840;2022-12-10T10:51:15;35.83;;;20.20;;
15913;SDS011;8055;51.930;8.840;2022-12-10T10:53:47;35.00;;;19.38;;
15913;SDS011;8055;51.930;8.840;2022-12-10T10:56:21;36.83;;;20.58;;
15913;SDS011;8055;51.930;8.840;2022-12-10T11:04:24;38.97;;;19.92;;
15913;SDS011;8055;51.930;8.840;2022-12-10T11:06:55;34.45;;;20.88;;
15913;SDS011;8055;51.930;8.840;2022-12-10T11:09:25;35.00;;;20.83;;
15913;SDS011;8055;51.930;8.840;2022-12-10T11:12:04;38.70;;;22.02;;
15913;SDS011;8055;51.930;8.840;2022-12-10T11:14:43;36.90;;;22.70;;
15913;SDS011;8055;51.930;8.840;2022-12-10T11:19:43;36.88;;;22.42;;
15913;SDS011;8055;51.930;8.840;2022-12-10T11:22:21;45.58;;;24.33;;
15913;SDS011;8055;51.930;8.840;2022-12-10T11:24:51;40.75;;;23.50;;
15913;SDS011;8055;51.930;8.840;2022-12-10T11:27:51;41.08;;;22.92;;
15913;SDS011;8055;51.930;8.840;2022-12-10T11:30:22;41.95;;;23.73;;
15913;SDS011;8055;51.930;8.840;2022-12-10T11:41:53;35.30;;;20.85;;
15913;SDS011;8055;51.930;8.840;2022-12-10T11:44:37;34.40;;;19.58;;
15913;SDS011;8055;51.930;8.840;2022-12-10T11:53:24;35.20;;;20.05;;
15913;SDS011;8055;51.930;8.840;2022-12-10T12:10:10;27.65;;;17.38;;
15913;SDS011;8055;51.930;8.840;2022-12-10T12:13:00;29.20;;;16.98;;
15913;SDS011;8055;51.930;8.840;2022-12-10T12:15:35;30.75;;;18.10;;
15913;SDS011;8055;51.930;8.840;2022-12-10T12:20:47;34.72;;;18.58;;
15913;SDS011;8055;51.930;8.840;2022-12-10T12:23:37;34.75;;;20.30;;
15913;SDS011;8055;51.930;8.840;2022-12-10T12:26:07;33.20;;;19.42;;
15913;SDS011;8055;51.930;8.840;2022-12-10T12:28:47;28.30;;;16.80;;
15913;SDS011;8055;51.930;8.840;2022-12-10T12:31:20;31.02;;;17.77;;
15913;SDS011;8055;51.930;8.840;2022-12-10T12:33:54;28.52;;;15.95;;
15913;SDS011;8055;51.930;8.840;2022-12-10T12:36:26;29.50;;;16.90;;
15913;SDS011;8055;51.930;8.840;2022-12-10T12:38:59;40.08;;;22.45;;
15913;SDS011;8055;51.930;8.840;2022-12-10T12:49:53;26.40;;;16.77;;
15913;SDS011;8055;51.930;8.840;2022-12-10T12:52:33;27.20;;;16.63;;
15913;SDS011;8055;51.930;8.840;2022-12-10T12:55:16;29.98;;;17.73;;
15913;SDS011;8055;51.930;8.840;2022-12-10T13:00:40;29.23;;;18.73;;
15913;SDS011;8055;51.930;8.840;2022-12-10T13:05:44;26.77;;;16.67;;
15913;SDS011;8055;51.930;8.840;2022-12-10T13:10:46;55.10;;;30.83;;
15913;SDS011;8055;51.930;8.840;2022-12-10T13:13:21;33.75;;;20.23;;
15913;SDS011;8055;51.930;8.840;2022-12-10T13:15:49;29.60;;;18.42;;
15913;SDS011;8055;51.930;8.840;2022-12-10T13:20:47;40.08;;;23.50;;
15913;SDS011;8055;51.930;8.840;2022-12-10T13:31:34;27.45;;;16.27;;
15913;SDS011;8055;51.930;8.840;2022-12-10T13:36:27;28.38;;;16.85;;
15913;SDS011;8055;51.930;8.840;2022-12-10T13:47:45;28.70;;;16.73;;
15913;SDS011;8055;51.930;8.840;2022-12-10T14:01:26;26.85;;;15.80;;
15913;SDS011;8055;51.930;8.840;2022-12-10T14:06:57;25.30;;;15.38;;
15913;SDS011;8055;51.930;8.840;2022-12-10T14:09:30;28.95;;;17.13;;
15913;SDS011;8055;51.930;8.840;2022-12-10T14:12:07;29.00;;;17.67;;
15913;SDS011;8055;51.930;8.840;2022-12-10T14:14:55;34.22;;;19.05;;
15913;SDS011;8055;51.930;8.840;2022-12-10T14:17:24;32.33;;;19.05;;
15913;SDS011;8055;51.930;8.840;2022-12-10T14:19:59;32.33;;;18.90;;
15913;SDS011;8055;51.930;8.840;2022-12-10T14:25:05;151.20;;;61.05;;
15913;SDS011;8055;51.930;8.840;2022-12-10T14:30:06;36.85;;;19.83;;
15913;SDS011;8055;51.930;8.840;2022-12-10T14:32:41;39.65;;;22.70;;
15913;SDS011;8055;51.930;8.840;2022-12-10T14:35:11;40.40;;;22.52;;
15913;SDS011;8055;51.930;8.840;2022-12-10T14:37:40;42.63;;;26.98;;
15913;SDS011;8055;51.930;8.840;2022-12-10T14:40:12;46.58;;;33.20;;
15913;SDS011;8055;51.930;8.840;2022-12-10T14:42:47;43.65;;;29.10;;
15913;SDS011;8055;51.930;8.840;2022-12-10T14:45:14;42.75;;;26.25;;
15913;SDS011;8055;51.930;8.840;2022-12-10T14:47:40;40.17;;;24.63;;
15913;SDS011;8055;51.930;8.840;2022-12-10T14:50:10;40.65;;;23.15;;
15913;SDS011;8055;51.930;8.840;2022-12-10T14:52:41;44.17;;;23.70;;
15913;SDS011;8055;51.930;8.840;2022-12-10T14:55:14;40.15;;;22.70;;
15913;SDS011;8055;51.930;8.840;2022-12-10T14:57:44;42.40;;;23.90;;
15913;SDS011;8055;51.930;8.840;2022-12-10T15:00:17;39.50;;;22.15;;
15913;SDS011;8055;51.930;8.840;2022-12-10T15:02:47;38.78;;;22.08;;
15913;SDS011;8055;51.930;8.840;2022-12-10T15:05:20;38.33;;;22.35;;
15913;SDS011;8055;51.930;8.840;2022-12-10T15:07:59;41.28;;;20.75;;
15913;SDS011;8055;51.930;8.840;2022-12-10T15:10:28;42.85;;;23.58;;
15913;SDS011;8055;51.930;8.840;2022-12-10T15:12:57;39.88;;;22.38;;
15913;SDS011;8055;51.930;8.840;2022-12-10T15:20:36;39.65;;;22.95;;
15913;SDS011;8055;51.930;8.840;2022-12-10T15:23:08;42.63;;;24.35;;
15913;SDS011;8055;51.930;8.840;2022-12-10T15:25:44;40.50;;;22.85;;
15913;SDS011;8055;51.930;8.840;2022-12-10T15:31:13;45.45;;;25.17;;
15913;SDS011;8055;51.930;8.840;2022-12-10T15:33:47;107.13;;;44.05;;
15913;SDS011;8055;51.930;8.840;2022-12-10T15:36:19;75.07;;;33.50;;
15913;SDS011;8055;51.930;8.840;2022-12-10T15:39:05;77.07;;;47.53;;
15913;SDS011;8055;51.930;8.840;2022-12-10T15:41:53;65.50;;;38.00;;
15913;SDS011;8055;51.930;8.840;2022-12-10T15:44:26;59.75;;;36.70;;
15913;SDS011;8055;51.930;8.840;2022-12-10T15:49:39;48.65;;;26.83;;
15913;SDS011;8055;51.930;8.840;2022-12-10T15:52:05;47.92;;;26.02;;
15913;SDS011;8055;51.930;8.840;2022-12-10T15:54:32;51.55;;;27.02;;
15913;SDS011;8055;51.930;8.840;2022-12-10T15:57:04;47.13;;;25.63;;
15913;SDS011;8055;51.930;8.840;2022-12-10T15:59:42;51.07;;;27.53;;
15913;SDS011;8055;51.930;8.840;2022-12-10T16:02:55;51.53;;;29.30;;
15913;SDS011;8055;51.930;8.840;2022-12-10T16:07:36;54.75;;;28.55;;
15913;SDS011;8055;51.930;8.840;2022-12-10T16:10:02;57.63;;;29.65;;
15913;SDS011;8055;51.930;8.840;2022-12-10T16:12:28;47.58;;;26.75;;
15913;SDS011;8055;51.930;8.840;2022-12-10T16:14:54;47.53;;;27.10;;
15913;SDS011;8055;51.930;8.840;2022-12-10T16:17:24;48.15;;;25.48;;
15913;SDS011;8055;51.930;8.840;2022-12-10T16:19:53;43.03;;;24.02;;
15913;SDS011;8055;51.930;8.840;2022-12-10T16:22:22;51.85;;;27.92;;
15913;SDS011;8055;51.930;8.840;2022-12-10T16:24:48;58.55;;;31.25;;
15913;SDS011;8055;51.930;8.840;2022-12-10T16:27:13;51.72;;;28.52;;
15913;SDS011;8055;51.930;8.840;2022-12-10T16:29:40;79.28;;;39.00;;
15913;SDS011;8055;51.930;8.840;2022-12-10T16:32:10;76.18;;;35.72;;
15913;SDS011;8055;51.930;8.840;2022-12-10T16:34:36;58.85;;;29.50;;
15913;SDS011;8055;51.930;8.840;2022-12-10T16:37:02;89.65;;;41.65;;
15913;SDS011;8055;51.930;8.840;2022-12-10T16:39:28;76.65;;;37.05;;
15913;SDS011;8055;51.930;8.840;2022-12-10T16:41:53;67.53;;;33.22;;
15913;SDS011;8055;51.930;8.840;2022-12-10T16:44:20;60.97;;;29.92;;
15913;SDS011;8055;51.930;8.840;2022-12-10T16:46:46;51.03;;;28.40;;
15913;SDS011;8055;51.930;8.840;2022-12-10T16:49:11;51.58;;;28.13;;
15913;SDS011;8055;51.930;8.840;2022-12-10T16:51:37;52.83;;;28.52;;
15913;SDS011;8055;51.930;8.840;2022-12-10T16:54:02;50.72;;;28.65;;
15913;SDS011;8055;51.930;8.840;2022-12-10T16:56:28;63.20;;;34.33;;
15913;SDS011;8055;51.930;8.840;2022-12-10T16:58:54;53.50;;;30.08;;
15913;SDS011;8055;51.930;8.840;2022-12-10T17:01:23;54.42;;;29.88;;
15913;SDS011;8055;51.930;8.840;2022-12-10T17:03:53;63.10;;;32.92;;
15913;SDS011;8055;51.930;8.840;2022-12-10T17:06:19;64.78;;;34.30;;
15913;SDS011;8055;51.930;8.840;2022-12-10T17:08:46;62.20;;;33.67;;
15913;SDS011;8055;51.930;8.840;2022-12-10T17:11:25;53.28;;;29.40;;
15913;SDS011;8055;51.930;8.840;2022-12-10T17:16:46;45.58;;;26.48;;
15913;SDS011;8055;51.930;8.840;2022-12-10T17:19:11;49.70;;;26.17;;